createdAt,value
2023-02-11T00:01:34.223Z,92.5
2023-02-11T00:06:40.417Z,91.5
2023-02-11T00:11:46.604Z,93.5
2023-02-11T00:16:52.798Z,93
2023-02-11T00:21:59.005Z,93
2023-02-11T00:27:05.176Z,92.5
2023-02-11T00:32:11.391Z,92.5
2023-02-11T00:37:17.574Z,92.5
2023-02-11T00:42:23.756Z,92
2023-02-11T00:47:29.965Z,91.5
2023-02-11T00:52:36.134Z,90
2023-02-11T00:57:42.342Z,89
2023-02-11T01:07:54.717Z,87.5
2023-02-11T01:13:00.921Z,87.5
2023-02-11T01:18:07.133Z,87.5
2023-02-11T01:23:12.373Z,88
2023-02-11T01:28:18.602Z,87
2023-02-11T01:33:24.759Z,87.5
2023-02-11T01:38:30.965Z,86
2023-02-11T01:43:37.162Z,86
2023-02-11T01:48:43.352Z,85.5
2023-02-11T01:53:49.530Z,85.5
2023-02-11T01:58:55.723Z,85.5
2023-02-11T02:04:01.909Z,86
2023-02-11T02:09:08.108Z,86
2023-02-11T02:14:13.340Z,86
2023-02-11T02:19:19.548Z,86
2023-02-11T02:24:25.719Z,86.5
2023-02-11T02:34:38.123Z,86.5
2023-02-11T02:39:44.307Z,86
2023-02-11T02:44:50.485Z,87
2023-02-11T02:49:56.731Z,86.5
2023-02-11T02:55:02.895Z,86.5
2023-02-11T03:00:09.114Z,87
2023-02-11T03:05:15.267Z,87.5
2023-02-11T03:10:21.487Z,87.5
2023-02-11T03:15:27.659Z,88
2023-02-11T03:20:33.837Z,88
2023-02-11T03:25:40.039Z,88.5
2023-02-11T03:30:46.241Z,88.5
2023-02-11T03:35:52.431Z,88.5
2023-02-11T03:40:58.656Z,89
2023-02-11T03:51:11.006Z,89.5
2023-02-11T03:56:16.234Z,89.5
2023-02-11T04:01:22.426Z,90
2023-02-11T04:06:28.623Z,90.5
2023-02-11T04:11:34.815Z,90.5
2023-02-11T04:16:40.993Z,90.5
2023-02-11T04:26:53.405Z,91
2023-02-11T04:31:59.581Z,91
2023-02-11T04:37:05.774Z,91
2023-02-11T04:42:11.955Z,91
2023-02-11T04:47:18.151Z,91.5
2023-02-11T04:52:24.356Z,91.5
2023-02-11T04:57:30.582Z,92
2023-02-11T05:02:36.738Z,92.5
2023-02-11T05:12:49.124Z,93
2023-02-11T05:23:01.493Z,95
2023-02-11T05:33:13.873Z,95
2023-02-11T05:43:25.354Z,96
2023-02-11T05:48:31.506Z,95.5
2023-02-11T05:53:37.703Z,95.5
2023-02-11T05:58:43.876Z,96
2023-02-11T06:03:50.072Z,96.5
2023-02-11T06:08:56.334Z,96.5
2023-02-11T06:14:02.466Z,96.5
2023-02-11T06:19:08.667Z,96
2023-02-11T06:24:14.834Z,96
2023-02-11T06:29:21.052Z,96
2023-02-11T06:34:27.255Z,96
2023-02-11T06:39:33.420Z,96
2023-02-11T06:44:39.621Z,96
2023-02-11T06:49:45.867Z,96.5
2023-02-11T06:54:52.010Z,96.5
2023-02-11T06:59:58.202Z,97
2023-02-11T07:15:16.768Z,97.5
2023-02-11T07:20:22.968Z,98.5
2023-02-11T07:25:29.178Z,98.5
2023-02-11T07:30:35.356Z,99
2023-02-11T07:35:41.533Z,99
2023-02-11T07:40:47.724Z,99.5
2023-02-11T07:45:53.924Z,99.5
2023-02-11T07:51:00.113Z,99
2023-02-11T07:56:06.306Z,99
2023-02-11T08:01:12.515Z,99
2023-02-11T08:06:18.747Z,98.5
2023-02-11T08:11:24.880Z,99
2023-02-11T08:16:31.112Z,99
2023-02-11T08:26:43.459Z,98.5
2023-02-11T08:31:48.692Z,98.5
2023-02-11T08:36:54.876Z,99
2023-02-11T08:42:01.094Z,99
2023-02-11T08:47:07.344Z,99
2023-02-11T08:52:13.482Z,99
2023-02-11T08:57:19.763Z,99
2023-02-11T09:02:25.918Z,99.5
2023-02-11T09:07:32.108Z,99.5
2023-02-11T09:17:44.489Z,99
2023-02-11T09:22:50.691Z,99
2023-02-11T09:27:56.918Z,98.5
2023-02-11T09:33:03.070Z,98
2023-02-11T09:38:09.309Z,98
2023-02-11T09:43:15.455Z,98
2023-02-11T09:48:21.642Z,98
2023-02-11T09:53:27.857Z,97.5
2023-02-11T09:58:34.095Z,97
2023-02-11T10:03:39.283Z,97.5
2023-02-11T10:08:45.531Z,97
2023-02-11T10:13:51.665Z,97
2023-02-11T10:18:57.843Z,97
2023-02-11T10:24:04.038Z,96.5
2023-02-11T10:29:10.235Z,97
2023-02-11T10:34:16.412Z,97
2023-02-11T10:39:22.627Z,97.5
2023-02-11T10:44:27.969Z,98
2023-02-11T10:49:34.084Z,98.5
2023-02-11T10:54:40.344Z,98.5
2023-02-11T11:04:52.875Z,98.5
2023-02-11T11:15:05.232Z,99
2023-02-11T11:20:11.389Z,99.5
2023-02-11T11:25:17.517Z,99.5
2023-02-11T11:30:23.630Z,99.5
2023-02-11T11:40:35.046Z,99.5
2023-02-11T11:45:41.222Z,99.5
2023-02-11T11:50:47.433Z,99.5
2023-02-11T11:55:53.594Z,99.5
2023-02-11T12:06:05.977Z,99
2023-02-11T12:11:12.202Z,99
2023-02-11T12:16:18.376Z,99
2023-02-11T12:21:24.572Z,99
2023-02-11T12:31:36.950Z,98.5
2023-02-11T12:36:43.143Z,98.5
2023-02-11T12:41:49.346Z,98.5
2023-02-11T12:46:55.561Z,98
2023-02-11T12:52:01.840Z,97.5
2023-02-11T12:57:07.978Z,97.5
2023-02-11T13:07:20.347Z,96.5
2023-02-11T13:12:26.515Z,96.5
2023-02-11T13:17:32.777Z,96
2023-02-11T13:22:38.950Z,96
2023-02-11T13:27:45.106Z,96
2023-02-11T13:32:51.292Z,95.5
2023-02-11T13:37:57.567Z,95.5
2023-02-11T13:48:09.917Z,95.5
2023-02-11T13:53:16.051Z,95.5
2023-02-11T13:58:22.247Z,95.5
2023-02-11T14:03:28.441Z,95
2023-02-11T14:08:34.724Z,95
2023-02-11T14:13:40.816Z,95.5
2023-02-11T14:18:47.009Z,95.5
2023-02-11T14:23:53.218Z,95.5
2023-02-11T14:28:59.384Z,95
2023-02-11T14:34:05.613Z,95.5
2023-02-11T14:39:11.780Z,95.5
2023-02-11T14:44:18.105Z,96
2023-02-11T14:49:24.439Z,96
2023-02-11T14:54:30.760Z,96
2023-02-11T14:59:37.226Z,96
2023-02-11T15:04:42.524Z,96
2023-02-11T15:09:48.860Z,96
2023-02-11T15:14:55.161Z,96
2023-02-11T15:20:01.551Z,96.5
2023-02-11T15:25:07.818Z,96.5
2023-02-11T15:30:14.145Z,96.5
2023-02-11T15:35:20.468Z,96.5
2023-02-11T15:40:26.795Z,97
2023-02-11T15:45:32.254Z,97
2023-02-11T15:50:37.715Z,97
2023-02-11T15:55:44.024Z,97.5
2023-02-11T16:00:50.353Z,97.5
2023-02-11T16:05:56.669Z,97.5
2023-02-11T16:11:03.010Z,98
2023-02-11T16:16:09.326Z,98
2023-02-11T16:21:15.647Z,98
2023-02-11T16:26:21.990Z,98
2023-02-11T16:31:28.301Z,98
2023-02-11T16:36:34.625Z,98.5
2023-02-11T16:41:40.957Z,98.5
2023-02-11T16:46:47.271Z,99
2023-02-11T16:56:59.932Z,99.5
2023-02-11T17:02:06.251Z,99.5
2023-02-11T17:07:12.594Z,99.5
2023-02-11T17:12:18.902Z,99
2023-02-11T17:17:24.371Z,99.5
2023-02-11T17:22:30.672Z,99.5
2023-02-11T17:27:36.986Z,99.5
2023-02-11T17:32:43.303Z,99.5
2023-02-11T17:37:49.645Z,99.5
2023-02-11T17:42:55.967Z,99.5
2023-02-11T17:48:02.299Z,99.5
2023-02-11T17:53:08.629Z,99.5
2023-02-11T17:58:15.015Z,99.5
2023-02-11T18:03:21.297Z,99.5
2023-02-11T18:08:27.601Z,99.5
2023-02-11T18:13:33.917Z,99.5
2023-02-11T18:18:40.246Z,99.5
2023-02-11T18:23:46.588Z,99.5
2023-02-11T18:28:52.025Z,99.5
2023-02-11T18:33:58.377Z,99.5
2023-02-11T18:39:04.693Z,99.5
2023-02-11T18:44:11.013Z,99.5
2023-02-11T18:49:17.318Z,99.5
2023-02-11T18:54:23.640Z,99.5
2023-02-11T18:59:29.999Z,99.5
2023-02-11T19:04:36.293Z,99.5
2023-02-11T19:09:42.611Z,99.5
2023-02-11T19:14:49.011Z,99.5
2023-02-11T19:19:55.262Z,99.5
2023-02-11T19:25:01.604Z,99.5
2023-02-11T19:30:07.912Z,99.5
2023-02-11T19:35:14.254Z,99.5
2023-02-11T19:40:19.735Z,99.5
2023-02-11T19:45:26.024Z,99.5
2023-02-11T19:50:32.332Z,99.5
2023-02-11T19:55:38.672Z,99.5
2023-02-11T20:00:44.974Z,99.5
2023-02-11T20:05:51.333Z,99.5
2023-02-11T20:10:57.662Z,99.5
2023-02-11T20:16:03.971Z,99.5
2023-02-11T20:21:10.288Z,99.5
2023-02-11T20:26:16.624Z,99.5
2023-02-11T20:31:22.957Z,99.5
2023-02-11T20:36:29.264Z,99.5
2023-02-11T20:41:35.582Z,99.5
2023-02-11T20:46:41.980Z,99.5
2023-02-11T20:51:47.372Z,99.5
2023-02-11T20:56:53.708Z,99.5
2023-02-11T21:01:59.990Z,99.5
2023-02-11T21:07:06.332Z,99.5
2023-02-11T21:12:12.661Z,99.5
2023-02-11T21:17:18.968Z,99.5
2023-02-11T21:22:25.297Z,99.5
2023-02-11T21:27:31.675Z,99.5
2023-02-11T21:32:37.994Z,99.5
2023-02-11T21:37:44.297Z,99.5
2023-02-11T21:42:50.635Z,99.5
2023-02-11T21:47:56.933Z,99.5
2023-02-11T21:53:03.302Z,99.5
2023-02-11T21:58:09.633Z,99.5
2023-02-11T22:03:15.919Z,99.5
2023-02-11T22:08:22.242Z,99.5
2023-02-11T22:13:28.586Z,99.5
2023-02-11T22:18:34.940Z,99.5
2023-02-11T22:23:41.206Z,99.5
2023-02-11T22:28:47.540Z,99.5
2023-02-11T22:33:53.877Z,99.5
2023-02-11T22:39:00.201Z,99.5
2023-02-11T22:44:06.493Z,99.5
2023-02-11T22:49:12.803Z,99.5
2023-02-11T22:54:19.167Z,99.5
2023-02-11T22:59:25.473Z,99.5
2023-02-11T23:04:31.817Z,99.5
2023-02-11T23:09:38.115Z,99.5
2023-02-11T23:14:44.440Z,99.5
2023-02-11T23:19:50.769Z,99.5
2023-02-11T23:24:56.208Z,99.5
2023-02-11T23:30:02.541Z,99.5
2023-02-11T23:35:08.866Z,99.5
2023-02-11T23:40:15.197Z,99.5
2023-02-11T23:45:21.550Z,99.5
2023-02-11T23:50:27.836Z,99.5
2023-02-11T23:55:34.154Z,99.5
